Time;durP1;ratioP1;P1;durP2;ratioP2;P2;SDS_P1;SDS_P2;PMS_P1;PMS_P2;Temp;Humidity;BMP_temperature;BMP_pressure;BME280_temperature;BME280_humidity;BME280_pressure;Samples;Min_cycle;Max_cycle;Signal;HPM_P1;HPM_P2
2021/01/27 00:05:17;;;;;;;5.70;3.93;;;3.10;99.90;;;;;;6310006;22;20500;-92
2021/01/27 00:08:48;;;;;;;5.30;3.93;;;3.10;99.90;;;;;;6312731;22;20381;-93
2021/01/27 00:37:49;;;;;;;5.63;4.33;;;2.60;99.90;;;;;;6209630;23;20397;-91
2021/01/27 00:40:45;;;;;;;4.57;4.00;;;2.60;99.90;;;;;;6211291;23;20451;-92
2021/01/27 01:45:11;;;;;;;6.20;5.60;;;2.10;99.90;;;;;;6279542;22;20193;-94
2021/01/27 02:59:24;;;;;;;4.60;4.20;;;2.60;99.90;;;;;;6213339;23;20385;-93
2021/01/27 03:28:38;;;;;;;6.53;3.97;;;2.40;99.90;;;;;;6282611;22;20438;-92
2021/01/27 04:35:14;;;;;;;6.83;3.87;;;2.60;99.90;;;;;;6289017;22;20437;-92
2021/01/27 04:44:56;;;;;;;5.23;4.73;;;2.70;99.90;;;;;;6217818;22;20417;-92
2021/01/27 04:53:53;;;;;;;4.10;3.80;;;2.70;99.90;;;;;;6284915;22;20544;-92
2021/01/27 04:56:52;;;;;;;4.60;4.20;;;2.60;99.90;;;;;;6250008;23;20427;-92
2021/01/27 05:00:26;;;;;;;4.33;3.97;;;2.70;99.90;;;;;;6249485;23;20391;-91
2021/01/27 05:09:14;;;;;;;5.07;4.47;;;2.80;99.90;;;;;;6247435;23;20408;-92
2021/01/27 05:12:04;;;;;;;10.60;3.93;;;2.70;99.90;;;;;;6228135;23;20442;-93
2021/01/27 05:14:42;;;;;;;5.00;4.47;;;2.70;99.90;;;;;;6279353;22;20467;-92
2021/01/27 05:18:02;;;;;;;5.60;4.30;;;2.70;99.90;;;;;;6311927;22;20430;-92
2021/01/27 05:32:30;;;;;;;5.90;5.23;;;2.90;99.90;;;;;;6286476;22;20500;-92
2021/01/27 05:39:03;;;;;;;6.07;4.70;;;2.80;99.90;;;;;;6279608;22;20401;-91
2021/01/27 05:42:02;;;;;;;4.90;4.40;;;2.90;99.90;;;;;;6284736;22;20390;-91
2021/01/27 05:44:58;;;;;;;6.10;5.50;;;2.70;99.90;;;;;;6284479;22;20449;-92
2021/01/27 05:50:53;;;;;;;4.87;4.47;;;2.80;99.90;;;;;;6279477;22;20476;-93
2021/01/27 06:02:09;;;;;;;5.63;5.13;;;2.80;99.90;;;;;;6252900;23;20498;-92
2021/01/27 06:22:50;;;;;;;6.73;6.10;;;2.90;99.90;;;;;;6277199;22;20450;-92
2021/01/27 06:25:47;;;;;;;10.20;6.37;;;3.00;99.90;;;;;;6260915;22;20475;-91
2021/01/27 06:59:12;;;;;;;11.00;8.63;;;3.20;99.90;;;;;;6304748;22;20397;-93
2021/01/27 07:33:36;;;;;;;10.90;8.60;;;3.20;99.90;;;;;;6256714;22;20407;-94
2021/01/27 07:54:00;;;;;;;11.97;9.50;;;3.40;99.90;;;;;;6259941;22;20457;-93
2021/01/27 08:10:40;;;;;;;23.23;13.47;;;3.50;99.90;;;;;;6254792;22;20450;-93
2021/01/27 08:15:59;;;;;;;12.73;9.67;;;3.60;99.90;;;;;;6316124;22;20808;-92
2021/01/27 08:32:23;;;;;;;12.60;10.27;;;3.80;99.90;;;;;;6266388;22;20449;-93
2021/01/27 08:34:51;;;;;;;11.97;10.77;;;3.80;99.90;;;;;;6296031;22;20483;-94
2021/01/27 08:40:40;;;;;;;10.97;9.57;;;3.70;99.90;;;;;;6278568;22;20461;-92
2021/01/27 08:43:33;;;;;;;11.43;10.23;;;3.70;99.90;;;;;;6279927;22;20438;-93
2021/01/27 08:46:34;;;;;;;12.40;9.57;;;3.60;99.90;;;;;;6280365;22;20465;-94
2021/01/27 08:49:10;;;;;;;13.17;11.07;;;3.70;99.90;;;;;;6288258;22;20414;-94
2021/01/27 09:14:47;;;;;;;15.93;12.57;;;4.10;99.90;;;;;;6200687;22;20453;-90
2021/01/27 09:52:18;;;;;;;20.23;15.70;;;4.70;99.90;;;;;;6295361;22;20441;-92
2021/01/27 10:43:28;;;;;;;22.40;15.83;;;5.00;99.90;;;;;;6161543;23;20402;-91
2021/01/27 10:45:55;;;;;;;28.53;17.53;;;5.00;99.90;;;;;;6238854;22;20456;-95
2021/01/27 10:51:10;;;;;;;26.53;17.53;;;5.20;99.90;;;;;;6342097;22;20171;-94
2021/01/27 11:26:19;;;;;;;26.80;16.83;;;5.40;99.90;;;;;;6325626;22;20169;-93
2021/01/27 11:49:35;;;;;;;32.87;19.27;;;5.40;99.90;;;;;;6296779;22;20168;-94
2021/01/27 11:52:08;;;;;;;37.20;19.93;;;5.50;99.90;;;;;;6293586;22;20189;-96
2021/01/27 11:54:53;;;;;;;34.17;19.60;;;5.40;99.90;;;;;;6285937;22;20197;-95
2021/01/27 11:57:47;;;;;;;30.60;20.83;;;5.60;99.90;;;;;;6289498;22;20165;-95
2021/01/27 12:00:55;;;;;;;39.07;20.83;;;5.50;99.90;;;;;;6288282;22;20652;-94
2021/01/27 12:03:21;;;;;;;33.40;20.37;;;5.70;99.90;;;;;;6281830;22;20208;-96
2021/01/27 12:05:48;;;;;;;37.47;22.43;;;5.70;99.90;;;;;;6285981;22;20212;-96
2021/01/27 12:08:16;;;;;;;39.37;21.50;;;5.70;99.90;;;;;;6280939;22;20590;-95
2021/01/27 12:10:43;;;;;;;40.80;22.13;;;5.80;99.90;;;;;;6278254;22;20248;-96
2021/01/27 12:13:09;;;;;;;41.73;23.43;;;5.80;99.90;;;;;;6277508;22;20248;-96
2021/01/27 12:15:36;;;;;;;40.47;22.40;;;5.90;99.90;;;;;;6277883;22;20637;-96
2021/01/27 12:18:02;;;;;;;37.97;23.40;;;6.00;99.90;;;;;;6276592;22;20531;-95
2021/01/27 12:20:29;;;;;;;42.53;24.17;;;6.20;99.90;;;;;;6278136;22;20203;-96
2021/01/27 12:22:55;;;;;;;41.67;22.87;;;6.20;99.90;;;;;;6279123;22;20613;-95
2021/01/27 12:25:23;;;;;;;47.67;25.40;;;6.20;99.90;;;;;;6279457;22;20284;-96
2021/01/27 12:27:49;;;;;;;46.87;23.87;;;6.20;99.90;;;;;;6280960;22;20193;-96
2021/01/27 12:30:17;;;;;;;48.95;31.08;;;6.30;99.90;;;;;;6282533;22;20396;-96
2021/01/27 12:33:08;;;;;;;50.07;26.20;;;6.30;99.90;;;;;;6287782;22;20177;-96
2021/01/27 12:42:45;;;;;;;54.83;25.93;;;6.30;99.90;;;;;;6291429;22;20296;-93
2021/01/27 12:49:08;;;;;;;50.00;25.63;;;6.40;99.90;;;;;;6253845;22;20189;-92
2021/01/27 12:58:39;;;;;;;53.90;26.10;;;6.50;99.90;;;;;;6279247;22;20189;-94
2021/01/27 13:11:39;;;;;;;53.17;24.63;;;6.40;99.90;;;;;;6301704;22;20188;-95
2021/01/27 13:14:05;;;;;;;48.87;26.67;;;6.50;99.90;;;;;;6282049;22;20232;-96
2021/01/27 13:16:32;;;;;;;46.17;26.77;;;6.60;99.90;;;;;;6278024;22;20269;-95
2021/01/27 13:22:58;;;;;;;48.87;25.67;;;6.90;99.90;;;;;;6288033;22;20209;-95
2021/01/27 13:25:26;;;;;;;48.93;27.20;;;6.90;99.90;;;;;;6297167;22;20197;-94
2021/01/27 13:28:02;;;;;;;50.57;27.53;;;7.10;99.90;;;;;;6290148;22;20156;-96
2021/01/27 13:30:33;;;;;;;49.57;27.27;;;7.00;99.90;;;;;;6288464;22;20632;-96
2021/01/27 13:33:03;;;;;;;43.77;26.10;;;7.10;99.90;;;;;;6287816;22;20176;-96
2021/01/27 13:35:34;;;;;;;52.40;26.40;;;7.10;99.90;;;;;;6293082;22;20216;-96
2021/01/27 13:38:04;;;;;;;47.43;26.53;;;7.30;99.90;;;;;;6293501;22;20189;-96
2021/01/27 13:40:31;;;;;;;49.80;27.73;;;7.20;99.90;;;;;;6293420;22;20177;-96
2021/01/27 13:43:04;;;;;;;51.23;26.70;;;7.30;99.90;;;;;;6293044;22;20176;-95
2021/01/27 13:45:37;;;;;;;47.10;27.27;;;7.40;99.90;;;;;;6292473;22;20200;-96
2021/01/27 13:48:10;;;;;;;49.27;26.83;;;7.30;99.90;;;;;;6293774;22;20196;-96
2021/01/27 13:50:37;;;;;;;43.20;26.27;;;7.40;99.90;;;;;;6295962;22;20192;-96
2021/01/27 13:53:05;;;;;;;45.63;26.50;;;7.40;99.90;;;;;;6295683;22;20178;-96
2021/01/27 13:55:36;;;;;;;53.97;27.20;;;7.50;99.90;;;;;;6295433;22;20243;-96
2021/01/27 13:58:03;;;;;;;47.93;26.17;;;7.50;99.90;;;;;;6298675;22;20162;-96
2021/01/27 14:00:30;;;;;;;44.43;25.83;;;7.60;99.90;;;;;;6294871;22;20226;-96
2021/01/27 14:02:56;;;;;;;47.83;25.13;;;7.60;99.90;;;;;;6296544;22;20184;-96
2021/01/27 14:05:47;;;;;;;50.90;25.97;;;7.60;99.90;;;;;;6291827;22;20221;-95
2021/01/27 14:08:24;;;;;;;48.60;26.73;;;7.50;99.90;;;;;;6301496;22;20184;-96
2021/01/27 14:15:03;;;;;;;49.90;26.80;;;7.40;99.90;;;;;;6301205;22;20213;-96
2021/01/27 14:24:29;;;;;;;45.13;25.73;;;7.50;99.90;;;;;;6299852;22;20224;-95
2021/01/27 14:26:56;;;;;;;46.43;26.07;;;7.50;99.90;;;;;;6275713;22;20165;-96
2021/01/27 14:29:26;;;;;;;49.43;26.23;;;7.50;99.90;;;;;;6296467;22;20199;-96
2021/01/27 14:31:54;;;;;;;49.70;26.27;;;7.60;99.90;;;;;;6296539;22;20200;-96
2021/01/27 14:34:20;;;;;;;47.60;27.00;;;7.60;99.90;;;;;;6293964;22;20212;-96
2021/01/27 14:36:51;;;;;;;53.07;27.20;;;7.50;99.90;;;;;;6294483;22;20710;-96
2021/01/27 14:39:19;;;;;;;48.73;27.13;;;7.50;99.90;;;;;;6294862;22;20227;-96
2021/01/27 14:41:46;;;;;;;48.93;28.00;;;7.60;99.90;;;;;;6292688;22;20169;-96
2021/01/27 14:44:14;;;;;;;51.37;27.53;;;7.50;99.90;;;;;;6294549;22;20201;-96
2021/01/27 14:46:41;;;;;;;49.57;25.57;;;7.60;99.90;;;;;;6298969;22;20166;-96
2021/01/27 14:49:08;;;;;;;50.10;26.13;;;7.60;99.90;;;;;;6298439;22;20191;-96
2021/01/27 14:51:37;;;;;;;53.63;28.67;;;7.50;99.90;;;;;;6272979;22;20177;-96
2021/01/27 14:54:04;;;;;;;51.30;27.03;;;7.50;99.90;;;;;;6297805;22;20204;-96
2021/01/27 14:56:33;;;;;;;53.60;29.33;;;7.40;99.90;;;;;;6273744;22;20201;-96
2021/01/27 14:59:00;;;;;;;50.70;27.67;;;7.30;99.90;;;;;;6300839;22;20161;-96
2021/01/27 15:01:27;;;;;;;61.43;28.17;;;7.40;99.90;;;;;;6299961;22;20166;-96
2021/01/27 15:03:53;;;;;;;55.50;28.30;;;7.50;99.90;;;;;;6297628;22;20166;-96
2021/01/27 15:06:21;;;;;;;64.43;29.57;;;7.50;99.90;;;;;;6297456;22;20173;-96
2021/01/27 15:08:48;;;;;;;58.87;28.83;;;7.50;99.90;;;;;;6294568;22;20534;-96
2021/01/27 15:11:15;;;;;;;65.17;28.60;;;7.60;99.90;;;;;;6295525;22;20169;-95
2021/01/27 15:13:41;;;;;;;59.20;28.57;;;7.50;99.90;;;;;;6282909;22;20188;-95
2021/01/27 15:16:08;;;;;;;57.63;27.87;;;7.60;99.90;;;;;;6283946;22;20544;-94
2021/01/27 15:18:34;;;;;;;63.37;29.87;;;7.60;99.90;;;;;;6281728;22;20197;-96
2021/01/27 15:21:02;;;;;;;64.20;28.67;;;7.60;99.90;;;;;;6288592;22;20490;-96
2021/01/27 15:23:30;;;;;;;59.70;28.10;;;7.70;99.90;;;;;;6284191;22;20181;-94
2021/01/27 15:25:59;;;;;;;55.43;26.83;;;7.70;99.90;;;;;;6296358;22;20212;-96
2021/01/27 15:28:53;;;;;;;51.50;27.20;;;7.70;99.90;;;;;;6276157;22;20181;-96
2021/01/27 15:31:21;;;;;;;59.83;27.13;;;7.70;99.90;;;;;;6300456;22;20243;-96
2021/01/27 15:33:48;;;;;;;57.87;28.10;;;7.70;99.90;;;;;;6290986;22;20209;-96
2021/01/27 15:36:15;;;;;;;56.53;26.87;;;7.70;99.90;;;;;;6290670;22;20224;-96
2021/01/27 15:38:43;;;;;;;55.00;26.67;;;7.70;99.90;;;;;;6295088;22;20230;-96
2021/01/27 15:41:11;;;;;;;58.60;27.97;;;7.50;99.90;;;;;;6296153;22;20174;-96
2021/01/27 15:43:47;;;;;;;59.17;28.13;;;7.50;99.90;;;;;;6300018;22;20165;-95
2021/01/27 15:48:40;;;;;;;70.23;29.17;;;7.50;99.90;;;;;;6282583;22;20236;-95
2021/01/27 15:51:09;;;;;;;64.20;30.63;;;7.60;99.90;;;;;;6291093;22;20229;-96
2021/01/27 15:53:41;;;;;;;57.33;27.40;;;7.60;99.90;;;;;;6288520;22;20244;-94
2021/01/27 15:56:26;;;;;;;60.00;28.03;;;7.60;99.90;;;;;;6258509;23;20213;-95
2021/01/27 15:58:53;;;;;;;60.70;27.00;;;7.50;99.90;;;;;;6224454;23;20220;-96
2021/01/27 16:01:22;;;;;;;65.30;28.00;;;7.60;99.90;;;;;;6229612;23;20261;-96
2021/01/27 16:03:48;;;;;;;63.70;28.20;;;7.50;99.90;;;;;;6222399;22;20166;-94
2021/01/27 16:06:14;;;;;;;58.17;27.33;;;7.50;99.90;;;;;;6247856;23;20194;-95
2021/01/27 16:08:41;;;;;;;56.77;26.87;;;7.50;99.90;;;;;;6248391;23;20174;-95
2021/01/27 16:11:08;;;;;;;60.23;26.67;;;7.60;99.90;;;;;;6248557;23;20181;-95
2021/01/27 16:13:36;;;;;;;60.77;27.60;;;7.60;99.90;;;;;;6248497;23;20249;-95
2021/01/27 16:16:03;;;;;;;65.53;28.07;;;7.60;99.90;;;;;;6247566;22;20276;-95
2021/01/27 16:18:29;;;;;;;57.47;26.00;;;7.60;99.90;;;;;;6247721;23;20665;-96
2021/01/27 16:20:56;;;;;;;60.83;27.67;;;7.60;99.90;;;;;;6254204;23;20553;-95
2021/01/27 16:23:22;;;;;;;63.07;25.93;;;7.50;99.90;;;;;;6248447;23;20657;-96
2021/01/27 16:25:49;;;;;;;62.50;27.53;;;7.60;99.90;;;;;;6246690;22;20197;-96
2021/01/27 16:28:16;;;;;;;62.33;26.43;;;7.60;99.90;;;;;;6249157;23;20252;-96
2021/01/27 16:30:43;;;;;;;58.30;25.87;;;7.70;99.90;;;;;;6252334;23;20229;-96
2021/01/27 16:33:10;;;;;;;58.93;25.93;;;7.60;99.90;;;;;;6229017;23;20224;-96
2021/01/27 16:35:38;;;;;;;59.60;26.37;;;7.60;99.90;;;;;;6246727;22;20216;-95
2021/01/27 16:38:06;;;;;;;58.37;26.13;;;7.60;99.90;;;;;;6247736;23;20252;-95
2021/01/27 16:40:34;;;;;;;66.83;26.60;;;7.50;99.90;;;;;;6258565;23;20166;-96
2021/01/27 16:43:00;;;;;;;63.67;26.50;;;7.50;99.90;;;;;;6261901;23;20178;-96
2021/01/27 16:45:30;;;;;;;61.20;26.10;;;7.50;99.90;;;;;;6258402;22;20209;-95
2021/01/27 16:47:58;;;;;;;64.50;26.53;;;7.50;99.90;;;;;;6249463;23;20701;-96
2021/01/27 16:50:26;;;;;;;69.40;28.67;;;7.50;99.90;;;;;;6249052;23;20197;-95
2021/01/27 16:52:53;;;;;;;65.67;27.30;;;7.60;99.90;;;;;;6251154;23;20198;-95
2021/01/27 16:55:33;;;;;;;62.07;25.30;;;7.50;99.90;;;;;;6254436;22;20205;-96
2021/01/27 16:58:00;;;;;;;57.17;25.33;;;7.60;99.90;;;;;;6248609;23;20540;-95
2021/01/27 17:00:27;;;;;;;61.00;24.53;;;7.70;99.90;;;;;;6252747;23;20178;-94
2021/01/27 17:02:54;;;;;;;59.07;25.53;;;7.60;99.90;;;;;;6250328;23;20257;-94
2021/01/27 17:05:24;;;;;;;58.43;25.03;;;7.50;99.90;;;;;;6252265;22;20197;-94
2021/01/27 17:07:51;;;;;;;54.40;24.13;;;7.40;99.90;;;;;;6251405;23;20186;-93
2021/01/27 17:10:18;;;;;;;50.47;21.53;;;7.50;99.90;;;;;;6251083;23;20660;-93
2021/01/27 17:12:44;;;;;;;47.67;21.73;;;7.50;99.90;;;;;;6249964;23;20201;-96
2021/01/27 17:15:12;;;;;;;55.90;23.53;;;7.40;99.90;;;;;;6247972;22;20193;-93
2021/01/27 17:17:39;;;;;;;56.73;24.67;;;7.50;99.90;;;;;;6248565;23;20174;-94
2021/01/27 17:20:07;;;;;;;52.73;22.00;;;7.50;99.90;;;;;;6249337;23;20722;-93
2021/01/27 17:22:36;;;;;;;48.40;23.17;;;7.60;99.90;;;;;;6254057;23;20530;-94
2021/01/27 18:47:40;;;;;;;76.23;27.60;;;7.60;99.90;;;;;;6310817;22;20183;-94
2021/01/27 18:50:12;;;;;;;69.67;27.60;;;7.40;99.90;;;;;;6361831;22;20251;-95
2021/01/27 18:52:39;;;;;;;71.40;30.13;;;7.40;99.90;;;;;;6335128;22;20176;-96
2021/01/27 18:55:39;;;;;;;68.33;29.17;;;7.50;99.90;;;;;;6363292;22;20191;-96
2021/01/27 18:58:09;;;;;;;80.30;28.37;;;7.40;99.90;;;;;;6362484;22;20187;-95
2021/01/27 19:00:40;;;;;;;71.03;27.27;;;7.50;99.90;;;;;;6364256;22;20152;-95
2021/01/27 19:08:28;;;;;;;78.93;30.00;;;7.70;99.90;;;;;;6319040;22;20523;-96
2021/01/27 19:14:32;;;;;;;99.80;29.37;;;7.70;99.90;;;;;;6303350;22;20190;-93
2021/01/27 19:17:00;;;;;;;89.83;28.57;;;7.80;99.90;;;;;;6303544;22;20185;-95
2021/01/27 19:43:40;;;;;;;92.80;29.23;;;7.70;99.90;;;;;;6305880;22;20224;-96
2021/01/27 20:36:45;;;;;;;102.73;30.23;;;7.80;99.90;;;;;;6367709;22;20198;-91
2021/01/27 20:45:25;;;;;;;85.97;28.83;;;8.00;99.90;;;;;;6314414;22;20239;-95
2021/01/27 20:48:09;;;;;;;102.03;30.13;;;7.80;99.90;;;;;;6302986;22;20197;-91
2021/01/27 21:00:23;;;;;;;70.50;26.13;;;7.80;99.90;;;;;;6300454;22;20193;-89
2021/01/27 21:06:42;;;;;;;74.07;25.67;;;8.00;99.90;;;;;;6288824;22;20200;-92
2021/01/27 21:09:53;;;;;;;67.20;26.43;;;7.80;99.90;;;;;;6303102;22;20215;-92
2021/01/27 21:25:17;;;;;;;61.97;23.83;;;7.70;99.90;;;;;;6303513;22;20189;-96
2021/01/27 21:51:41;;;;;;;55.43;23.07;;;7.80;99.90;;;;;;6304716;22;20200;-93
2021/01/27 21:54:16;;;;;;;52.67;21.60;;;7.80;99.90;;;;;;6294656;22;20265;-92
2021/01/27 21:56:45;;;;;;;55.10;20.83;;;7.80;99.90;;;;;;6302571;22;20199;-96
2021/01/27 22:02:06;;;;;;;50.80;21.97;;;7.70;99.90;;;;;;6304181;22;20197;-93
2021/01/27 22:08:38;;;;;;;56.10;20.97;;;7.70;99.90;;;;;;6301249;22;20196;-95
2021/01/27 22:14:01;;;;;;;45.10;20.27;;;7.70;99.90;;;;;;6303937;22;20161;-92
2021/01/27 22:28:25;;;;;;;50.27;21.37;;;7.80;99.90;;;;;;6304275;22;20196;-94
2021/01/27 22:31:22;;;;;;;52.97;21.67;;;7.80;99.90;;;;;;6303550;22;20176;-96
2021/01/27 22:33:49;;;;;;;55.07;21.10;;;7.70;99.90;;;;;;6304987;22;20209;-96
2021/01/27 22:38:57;;;;;;;52.47;21.43;;;7.70;99.90;;;;;;6271966;23;20178;-96
2021/01/27 22:41:44;;;;;;;48.20;20.70;;;7.70;99.90;;;;;;6273992;23;20198;-96
2021/01/27 22:44:12;;;;;;;51.00;22.20;;;7.80;99.90;;;;;;6315471;22;20219;-96
2021/01/27 22:52:17;;;;;;;45.40;21.70;;;7.90;99.90;;;;;;6304566;22;20157;-95
2021/01/27 23:03:34;;;;;;;53.83;21.93;;;7.80;99.90;;;;;;6356143;22;20193;-96
2021/01/27 23:06:10;;;;;;;46.70;21.80;;;7.80;99.90;;;;;;6302972;22;20204;-94
2021/01/27 23:08:38;;;;;;;50.63;22.27;;;7.90;99.90;;;;;;6271860;22;20165;-94
2021/01/27 23:11:35;;;;;;;50.67;22.17;;;8.10;99.90;;;;;;6304250;22;20231;-94
2021/01/27 23:16:46;;;;;;;48.43;21.67;;;7.90;99.90;;;;;;6305587;22;20189;-96
2021/01/27 23:19:13;;;;;;;49.03;22.33;;;7.80;99.90;;;;;;6305538;22;20209;-92
2021/01/27 23:24:23;;;;;;;44.23;19.37;;;7.80;99.90;;;;;;6297652;22;20193;-95
2021/01/27 23:26:53;;;;;;;43.37;21.37;;;7.80;99.90;;;;;;6294342;22;20192;-93
2021/01/27 23:30:03;;;;;;;42.47;20.73;;;7.70;99.90;;;;;;6305999;22;20239;-92
2021/01/27 23:32:30;;;;;;;42.33;20.00;;;7.80;99.90;;;;;;6307076;22;20173;-95
2021/01/27 23:34:59;;;;;;;39.90;19.93;;;7.80;99.90;;;;;;6305426;22;20185;-95
2021/01/27 23:37:33;;;;;;;41.77;19.63;;;8.00;99.90;;;;;;6301763;22;21534;-96
2021/01/27 23:46:22;;;;;;;41.53;20.87;;;8.00;99.90;;;;;;6303467;22;20292;-96
2021/01/27 23:48:49;;;;;;;39.70;21.23;;;8.10;99.90;;;;;;6304585;22;20239;-96
2021/01/27 23:51:22;;;;;;;42.53;20.55;;;8.00;99.90;;;;;;6304034;22;20414;-96
